sensor_id;sensor_type;location;lat;lon;timestamp;P1;durP1;ratioP1;P2;durP2;ratioP2
41221;SDS011;26952;42.884;23.918;2023-02-08T00:01:53;34.65;;;20.17;;
41221;SDS011;26952;42.884;23.918;2023-02-08T00:04:19;42.38;;;21.42;;
41221;SDS011;26952;42.884;23.918;2023-02-08T00:06:44;36.88;;;20.90;;
41221;SDS011;26952;42.884;23.918;2023-02-08T00:09:10;42.03;;;21.05;;
41221;SDS011;26952;42.884;23.918;2023-02-08T00:11:36;32.75;;;18.73;;
41221;SDS011;26952;42.884;23.918;2023-02-08T00:14:01;44.83;;;21.10;;
41221;SDS011;26952;42.884;23.918;2023-02-08T00:16:27;40.03;;;20.08;;
41221;SDS011;26952;42.884;23.918;2023-02-08T00:18:52;37.65;;;18.70;;
41221;SDS011;26952;42.884;23.918;2023-02-08T00:21:18;27.35;;;16.17;;
41221;SDS011;26952;42.884;23.918;2023-02-08T00:23:44;26.33;;;14.25;;
41221;SDS011;26952;42.884;23.918;2023-02-08T00:26:10;21.90;;;12.00;;
41221;SDS011;26952;42.884;23.918;2023-02-08T00:28:36;25.55;;;12.85;;
41221;SDS011;26952;42.884;23.918;2023-02-08T00:31:02;19.35;;;12.68;;
41221;SDS011;26952;42.884;23.918;2023-02-08T00:33:27;19.83;;;10.10;;
41221;SDS011;26952;42.884;23.918;2023-02-08T00:35:59;20.17;;;9.88;;
41221;SDS011;26952;42.884;23.918;2023-02-08T00:38:26;17.60;;;9.95;;
41221;SDS011;26952;42.884;23.918;2023-02-08T00:40:51;12.65;;;8.45;;
41221;SDS011;26952;42.884;23.918;2023-02-08T00:43:17;23.42;;;12.35;;
41221;SDS011;26952;42.884;23.918;2023-02-08T00:45:42;17.52;;;10.82;;
41221;SDS011;26952;42.884;23.918;2023-02-08T00:48:07;17.38;;;10.38;;
41221;SDS011;26952;42.884;23.918;2023-02-08T00:50:33;19.73;;;10.88;;
41221;SDS011;26952;42.884;23.918;2023-02-08T00:52:58;18.38;;;11.35;;
41221;SDS011;26952;42.884;23.918;2023-02-08T00:55:24;18.85;;;12.20;;
41221;SDS011;26952;42.884;23.918;2023-02-08T00:57:49;15.95;;;9.65;;
41221;SDS011;26952;42.884;23.918;2023-02-08T01:00:15;16.42;;;10.35;;
41221;SDS011;26952;42.884;23.918;2023-02-08T01:02:40;13.98;;;9.32;;
41221;SDS011;26952;42.884;23.918;2023-02-08T01:05:06;15.05;;;8.43;;
41221;SDS011;26952;42.884;23.918;2023-02-08T01:07:31;13.75;;;7.85;;
41221;SDS011;26952;42.884;23.918;2023-02-08T01:09:57;12.95;;;7.80;;
41221;SDS011;26952;42.884;23.918;2023-02-08T01:12:24;12.40;;;7.75;;
41221;SDS011;26952;42.884;23.918;2023-02-08T01:14:49;13.38;;;7.70;;
41221;SDS011;26952;42.884;23.918;2023-02-08T01:17:15;15.13;;;8.25;;
41221;SDS011;26952;42.884;23.918;2023-02-08T01:19:40;14.82;;;8.60;;
41221;SDS011;26952;42.884;23.918;2023-02-08T01:22:06;26.52;;;14.88;;
41221;SDS011;26952;42.884;23.918;2023-02-08T01:24:31;24.38;;;15.05;;
41221;SDS011;26952;42.884;23.918;2023-02-08T01:26:57;22.08;;;13.50;;
41221;SDS011;26952;42.884;23.918;2023-02-08T01:29:22;21.83;;;11.88;;
41221;SDS011;26952;42.884;23.918;2023-02-08T01:31:48;21.10;;;11.07;;
41221;SDS011;26952;42.884;23.918;2023-02-08T01:34:13;15.50;;;9.68;;
41221;SDS011;26952;42.884;23.918;2023-02-08T01:36:39;18.98;;;10.57;;
41221;SDS011;26952;42.884;23.918;2023-02-08T01:39:05;17.50;;;9.18;;
41221;SDS011;26952;42.884;23.918;2023-02-08T01:41:36;39.22;;;21.00;;
41221;SDS011;26952;42.884;23.918;2023-02-08T01:44:05;38.28;;;22.00;;
41221;SDS011;26952;42.884;23.918;2023-02-08T01:46:34;34.67;;;19.35;;
41221;SDS011;26952;42.884;23.918;2023-02-08T01:49:09;29.63;;;17.58;;
41221;SDS011;26952;42.884;23.918;2023-02-08T01:51:43;34.13;;;18.15;;
41221;SDS011;26952;42.884;23.918;2023-02-08T01:54:12;29.83;;;16.80;;
41221;SDS011;26952;42.884;23.918;2023-02-08T01:56:40;30.73;;;16.65;;
41221;SDS011;26952;42.884;23.918;2023-02-08T01:59:11;29.17;;;15.55;;
41221;SDS011;26952;42.884;23.918;2023-02-08T02:01:41;26.23;;;14.90;;
41221;SDS011;26952;42.884;23.918;2023-02-08T02:04:09;28.73;;;15.07;;
41221;SDS011;26952;42.884;23.918;2023-02-08T02:06:36;25.90;;;15.52;;
41221;SDS011;26952;42.884;23.918;2023-02-08T02:11:40;31.02;;;15.23;;
41221;SDS011;26952;42.884;23.918;2023-02-08T02:14:07;26.00;;;14.75;;
41221;SDS011;26952;42.884;23.918;2023-02-08T02:16:33;25.00;;;14.35;;
41221;SDS011;26952;42.884;23.918;2023-02-08T02:18:59;27.20;;;14.68;;
41221;SDS011;26952;42.884;23.918;2023-02-08T02:21:29;27.27;;;15.85;;
41221;SDS011;26952;42.884;23.918;2023-02-08T02:33:38;24.70;;;14.75;;
41221;SDS011;26952;42.884;23.918;2023-02-08T02:36:00;21.83;;;12.60;;
41221;SDS011;26952;42.884;23.918;2023-02-08T02:38:48;27.05;;;14.65;;
41221;SDS011;26952;42.884;23.918;2023-02-08T02:41:32;23.08;;;12.68;;
41221;SDS011;26952;42.884;23.918;2023-02-08T02:44:38;20.80;;;12.45;;
41221;SDS011;26952;42.884;23.918;2023-02-08T02:47:35;19.88;;;11.32;;
41221;SDS011;26952;42.884;23.918;2023-02-08T02:52:50;20.67;;;13.02;;
41221;SDS011;26952;42.884;23.918;2023-02-08T02:55:23;24.17;;;14.05;;
41221;SDS011;26952;42.884;23.918;2023-02-08T02:57:52;17.55;;;10.57;;
41221;SDS011;26952;42.884;23.918;2023-02-08T03:00:22;19.10;;;11.70;;
41221;SDS011;26952;42.884;23.918;2023-02-08T03:02:50;20.60;;;12.05;;
41221;SDS011;26952;42.884;23.918;2023-02-08T03:05:16;19.13;;;12.40;;
41221;SDS011;26952;42.884;23.918;2023-02-08T03:07:46;20.95;;;13.07;;
41221;SDS011;26952;42.884;23.918;2023-02-08T03:15:39;21.60;;;12.50;;
41221;SDS011;26952;42.884;23.918;2023-02-08T03:18:11;21.23;;;12.23;;
41221;SDS011;26952;42.884;23.918;2023-02-08T03:20:50;24.25;;;13.02;;
41221;SDS011;26952;42.884;23.918;2023-02-08T03:23:36;24.15;;;13.38;;
41221;SDS011;26952;42.884;23.918;2023-02-08T03:29:08;25.60;;;13.73;;
41221;SDS011;26952;42.884;23.918;2023-02-08T03:37:08;22.15;;;12.98;;
41221;SDS011;26952;42.884;23.918;2023-02-08T03:39:38;23.92;;;12.45;;
41221;SDS011;26952;42.884;23.918;2023-02-08T03:42:08;24.20;;;12.95;;
41221;SDS011;26952;42.884;23.918;2023-02-08T03:44:47;22.20;;;13.57;;
41221;SDS011;26952;42.884;23.918;2023-02-08T03:47:26;24.10;;;12.98;;
41221;SDS011;26952;42.884;23.918;2023-02-08T03:49:57;20.65;;;12.40;;
41221;SDS011;26952;42.884;23.918;2023-02-08T03:52:27;18.45;;;11.27;;
41221;SDS011;26952;42.884;23.918;2023-02-08T03:54:57;19.40;;;11.20;;
41221;SDS011;26952;42.884;23.918;2023-02-08T03:57:28;18.33;;;10.35;;
41221;SDS011;26952;42.884;23.918;2023-02-08T04:00:03;18.05;;;10.73;;
41221;SDS011;26952;42.884;23.918;2023-02-08T04:02:32;15.82;;;10.05;;
41221;SDS011;26952;42.884;23.918;2023-02-08T04:05:01;16.05;;;10.18;;
41221;SDS011;26952;42.884;23.918;2023-02-08T04:07:28;13.30;;;8.43;;
41221;SDS011;26952;42.884;23.918;2023-02-08T04:09:54;17.50;;;9.38;;
41221;SDS011;26952;42.884;23.918;2023-02-08T04:12:19;13.48;;;8.00;;
41221;SDS011;26952;42.884;23.918;2023-02-08T04:14:45;13.10;;;8.27;;
41221;SDS011;26952;42.884;23.918;2023-02-08T04:17:10;16.90;;;9.73;;
41221;SDS011;26952;42.884;23.918;2023-02-08T04:19:36;19.73;;;11.98;;
41221;SDS011;26952;42.884;23.918;2023-02-08T04:22:01;18.10;;;11.57;;
41221;SDS011;26952;42.884;23.918;2023-02-08T04:24:26;19.88;;;12.13;;
41221;SDS011;26952;42.884;23.918;2023-02-08T04:26:52;24.88;;;13.52;;
41221;SDS011;26952;42.884;23.918;2023-02-08T04:29:17;24.00;;;14.13;;
41221;SDS011;26952;42.884;23.918;2023-02-08T04:31:42;23.35;;;13.70;;
41221;SDS011;26952;42.884;23.918;2023-02-08T04:34:08;21.67;;;12.95;;
41221;SDS011;26952;42.884;23.918;2023-02-08T04:36:33;19.13;;;12.35;;
41221;SDS011;26952;42.884;23.918;2023-02-08T04:38:59;18.98;;;11.65;;
41221;SDS011;26952;42.884;23.918;2023-02-08T04:41:24;19.13;;;11.35;;
41221;SDS011;26952;42.884;23.918;2023-02-08T04:43:49;19.23;;;10.93;;
41221;SDS011;26952;42.884;23.918;2023-02-08T04:46:15;14.82;;;9.77;;
41221;SDS011;26952;42.884;23.918;2023-02-08T04:48:40;27.80;;;15.40;;
41221;SDS011;26952;42.884;23.918;2023-02-08T04:51:06;40.58;;;22.50;;
41221;SDS011;26952;42.884;23.918;2023-02-08T04:53:31;40.85;;;21.70;;
41221;SDS011;26952;42.884;23.918;2023-02-08T04:55:56;48.10;;;23.38;;
41221;SDS011;26952;42.884;23.918;2023-02-08T04:58:22;59.72;;;28.98;;
41221;SDS011;26952;42.884;23.918;2023-02-08T05:00:48;51.03;;;26.15;;
41221;SDS011;26952;42.884;23.918;2023-02-08T05:03:13;57.72;;;30.70;;
41221;SDS011;26952;42.884;23.918;2023-02-08T05:05:39;60.05;;;30.63;;
41221;SDS011;26952;42.884;23.918;2023-02-08T05:08:05;61.92;;;30.30;;
41221;SDS011;26952;42.884;23.918;2023-02-08T05:10:30;55.67;;;30.38;;
41221;SDS011;26952;42.884;23.918;2023-02-08T05:12:56;58.72;;;29.27;;
41221;SDS011;26952;42.884;23.918;2023-02-08T05:15:22;54.58;;;30.23;;
41221;SDS011;26952;42.884;23.918;2023-02-08T05:17:47;57.28;;;30.48;;
41221;SDS011;26952;42.884;23.918;2023-02-08T05:20:12;56.33;;;30.17;;
41221;SDS011;26952;42.884;23.918;2023-02-08T05:22:38;59.60;;;30.20;;
41221;SDS011;26952;42.884;23.918;2023-02-08T05:25:04;57.25;;;29.27;;
41221;SDS011;26952;42.884;23.918;2023-02-08T05:27:30;43.42;;;22.85;;
41221;SDS011;26952;42.884;23.918;2023-02-08T05:29:57;39.30;;;22.10;;
41221;SDS011;26952;42.884;23.918;2023-02-08T05:32:23;39.53;;;21.60;;
41221;SDS011;26952;42.884;23.918;2023-02-08T05:34:48;39.28;;;21.67;;
41221;SDS011;26952;42.884;23.918;2023-02-08T05:37:13;35.17;;;18.45;;
41221;SDS011;26952;42.884;23.918;2023-02-08T05:39:39;45.95;;;25.80;;
41221;SDS011;26952;42.884;23.918;2023-02-08T05:42:05;47.78;;;24.90;;
41221;SDS011;26952;42.884;23.918;2023-02-08T05:44:31;41.88;;;22.55;;
41221;SDS011;26952;42.884;23.918;2023-02-08T05:46:56;43.47;;;22.48;;
41221;SDS011;26952;42.884;23.918;2023-02-08T05:49:22;43.00;;;21.90;;
41221;SDS011;26952;42.884;23.918;2023-02-08T05:51:47;39.60;;;20.27;;
41221;SDS011;26952;42.884;23.918;2023-02-08T05:54:14;42.08;;;21.88;;
41221;SDS011;26952;42.884;23.918;2023-02-08T05:56:39;38.70;;;20.98;;
41221;SDS011;26952;42.884;23.918;2023-02-08T05:59:05;42.88;;;22.65;;
41221;SDS011;26952;42.884;23.918;2023-02-08T06:01:30;42.03;;;21.52;;
41221;SDS011;26952;42.884;23.918;2023-02-08T06:03:57;42.15;;;22.48;;
41221;SDS011;26952;42.884;23.918;2023-02-08T06:06:24;44.08;;;23.02;;
41221;SDS011;26952;42.884;23.918;2023-02-08T06:08:49;39.55;;;22.42;;
41221;SDS011;26952;42.884;23.918;2023-02-08T06:11:14;41.97;;;23.08;;
41221;SDS011;26952;42.884;23.918;2023-02-08T06:13:41;38.90;;;22.05;;
41221;SDS011;26952;42.884;23.918;2023-02-08T06:16:06;41.08;;;22.88;;
41221;SDS011;26952;42.884;23.918;2023-02-08T06:18:32;39.95;;;22.83;;
41221;SDS011;26952;42.884;23.918;2023-02-08T06:20:57;44.80;;;23.08;;
41221;SDS011;26952;42.884;23.918;2023-02-08T06:23:23;39.55;;;23.15;;
41221;SDS011;26952;42.884;23.918;2023-02-08T06:25:49;38.00;;;21.50;;
41221;SDS011;26952;42.884;23.918;2023-02-08T06:28:14;35.90;;;20.75;;
41221;SDS011;26952;42.884;23.918;2023-02-08T06:30:40;38.40;;;22.42;;
41221;SDS011;26952;42.884;23.918;2023-02-08T06:33:06;38.05;;;21.05;;
41221;SDS011;26952;42.884;23.918;2023-02-08T06:35:31;33.70;;;20.92;;
41221;SDS011;26952;42.884;23.918;2023-02-08T06:37:57;40.03;;;21.95;;
41221;SDS011;26952;42.884;23.918;2023-02-08T06:40:23;40.60;;;24.42;;
41221;SDS011;26952;42.884;23.918;2023-02-08T06:42:48;50.03;;;27.42;;
41221;SDS011;26952;42.884;23.918;2023-02-08T06:45:14;56.08;;;30.83;;
41221;SDS011;26952;42.884;23.918;2023-02-08T06:47:40;58.25;;;29.63;;
41221;SDS011;26952;42.884;23.918;2023-02-08T06:50:05;50.10;;;27.73;;
41221;SDS011;26952;42.884;23.918;2023-02-08T06:52:31;49.47;;;28.38;;
41221;SDS011;26952;42.884;23.918;2023-02-08T06:54:56;56.92;;;30.15;;
41221;SDS011;26952;42.884;23.918;2023-02-08T06:57:22;47.55;;;27.70;;
41221;SDS011;26952;42.884;23.918;2023-02-08T06:59:47;51.88;;;28.20;;
41221;SDS011;26952;42.884;23.918;2023-02-08T07:02:14;52.42;;;27.73;;
41221;SDS011;26952;42.884;23.918;2023-02-08T07:04:41;49.95;;;27.52;;
41221;SDS011;26952;42.884;23.918;2023-02-08T07:07:06;46.75;;;26.95;;
41221;SDS011;26952;42.884;23.918;2023-02-08T07:09:35;48.90;;;26.90;;
41221;SDS011;26952;42.884;23.918;2023-02-08T07:12:01;44.53;;;25.38;;
41221;SDS011;26952;42.884;23.918;2023-02-08T07:14:29;48.90;;;26.20;;
41221;SDS011;26952;42.884;23.918;2023-02-08T07:16:56;46.25;;;27.20;;
41221;SDS011;26952;42.884;23.918;2023-02-08T07:19:21;42.88;;;25.65;;
41221;SDS011;26952;42.884;23.918;2023-02-08T07:21:47;43.15;;;25.42;;
41221;SDS011;26952;42.884;23.918;2023-02-08T07:24:12;45.78;;;26.02;;
41221;SDS011;26952;42.884;23.918;2023-02-08T07:26:37;45.95;;;26.90;;
41221;SDS011;26952;42.884;23.918;2023-02-08T07:29:03;40.05;;;24.55;;
41221;SDS011;26952;42.884;23.918;2023-02-08T07:31:29;40.63;;;24.17;;
41221;SDS011;26952;42.884;23.918;2023-02-08T07:33:54;40.20;;;23.60;;
41221;SDS011;26952;42.884;23.918;2023-02-08T07:36:19;44.13;;;24.38;;
41221;SDS011;26952;42.884;23.918;2023-02-08T07:38:45;37.92;;;22.48;;
41221;SDS011;26952;42.884;23.918;2023-02-08T07:41:11;37.72;;;22.08;;
41221;SDS011;26952;42.884;23.918;2023-02-08T07:43:38;52.83;;;30.88;;
41221;SDS011;26952;42.884;23.918;2023-02-08T07:46:08;59.85;;;32.90;;
41221;SDS011;26952;42.884;23.918;2023-02-08T07:48:36;59.03;;;33.28;;
41221;SDS011;26952;42.884;23.918;2023-02-08T07:51:02;58.97;;;33.80;;
41221;SDS011;26952;42.884;23.918;2023-02-08T07:53:28;54.95;;;32.33;;
41221;SDS011;26952;42.884;23.918;2023-02-08T07:55:54;55.97;;;32.00;;
41221;SDS011;26952;42.884;23.918;2023-02-08T07:58:20;54.25;;;32.08;;
41221;SDS011;26952;42.884;23.918;2023-02-08T08:00:46;54.67;;;31.25;;
41221;SDS011;26952;42.884;23.918;2023-02-08T08:03:11;50.25;;;27.80;;
41221;SDS011;26952;42.884;23.918;2023-02-08T08:05:38;47.97;;;26.55;;
41221;SDS011;26952;42.884;23.918;2023-02-08T08:08:05;44.80;;;26.50;;
41221;SDS011;26952;42.884;23.918;2023-02-08T08:10:31;48.70;;;28.08;;
41221;SDS011;26952;42.884;23.918;2023-02-08T08:12:58;49.22;;;27.95;;
41221;SDS011;26952;42.884;23.918;2023-02-08T08:15:23;45.78;;;28.02;;
41221;SDS011;26952;42.884;23.918;2023-02-08T08:17:48;56.22;;;30.67;;
41221;SDS011;26952;42.884;23.918;2023-02-08T08:20:14;53.55;;;31.50;;
41221;SDS011;26952;42.884;23.918;2023-02-08T08:22:39;64.72;;;35.13;;
41221;SDS011;26952;42.884;23.918;2023-02-08T08:25:05;55.60;;;32.90;;
41221;SDS011;26952;42.884;23.918;2023-02-08T08:27:30;57.20;;;33.65;;
41221;SDS011;26952;42.884;23.918;2023-02-08T08:29:56;39.88;;;23.73;;
41221;SDS011;26952;42.884;23.918;2023-02-08T08:32:21;28.95;;;18.55;;
41221;SDS011;26952;42.884;23.918;2023-02-08T08:34:47;22.60;;;13.95;;
41221;SDS011;26952;42.884;23.918;2023-02-08T08:37:12;23.25;;;14.00;;
41221;SDS011;26952;42.884;23.918;2023-02-08T08:39:37;22.38;;;14.13;;
41221;SDS011;26952;42.884;23.918;2023-02-08T08:42:03;20.55;;;13.65;;
41221;SDS011;26952;42.884;23.918;2023-02-08T08:44:29;21.95;;;13.07;;
41221;SDS011;26952;42.884;23.918;2023-02-08T08:46:55;19.30;;;11.20;;
41221;SDS011;26952;42.884;23.918;2023-02-08T08:49:22;21.48;;;12.88;;
41221;SDS011;26952;42.884;23.918;2023-02-08T08:51:48;23.50;;;12.23;;
41221;SDS011;26952;42.884;23.918;2023-02-08T08:54:15;18.48;;;12.05;;
41221;SDS011;26952;42.884;23.918;2023-02-08T08:56:40;14.95;;;10.98;;
41221;SDS011;26952;42.884;23.918;2023-02-08T08:59:06;17.92;;;11.50;;
41221;SDS011;26952;42.884;23.918;2023-02-08T09:01:31;18.45;;;10.90;;
41221;SDS011;26952;42.884;23.918;2023-02-08T09:03:56;22.23;;;12.75;;
41221;SDS011;26952;42.884;23.918;2023-02-08T09:06:22;17.50;;;11.30;;
41221;SDS011;26952;42.884;23.918;2023-02-08T09:08:47;19.40;;;11.90;;
41221;SDS011;26952;42.884;23.918;2023-02-08T09:11:13;20.00;;;11.55;;
41221;SDS011;26952;42.884;23.918;2023-02-08T09:13:40;19.25;;;11.50;;
41221;SDS011;26952;42.884;23.918;2023-02-08T09:16:07;17.73;;;10.85;;
41221;SDS011;26952;42.884;23.918;2023-02-08T09:18:40;18.25;;;10.50;;
41221;SDS011;26952;42.884;23.918;2023-02-08T09:21:13;19.95;;;12.07;;
41221;SDS011;26952;42.884;23.918;2023-02-08T09:23:40;21.83;;;13.05;;
41221;SDS011;26952;42.884;23.918;2023-02-08T09:26:06;34.17;;;18.77;;
41221;SDS011;26952;42.884;23.918;2023-02-08T09:28:32;19.30;;;11.85;;
41221;SDS011;26952;42.884;23.918;2023-02-08T09:30:58;21.73;;;11.43;;
41221;SDS011;26952;42.884;23.918;2023-02-08T09:33:26;20.70;;;11.70;;
41221;SDS011;26952;42.884;23.918;2023-02-08T09:35:52;19.27;;;12.02;;
41221;SDS011;26952;42.884;23.918;2023-02-08T09:38:18;20.38;;;11.18;;
41221;SDS011;26952;42.884;23.918;2023-02-08T09:46:16;19.45;;;11.27;;
41221;SDS011;26952;42.884;23.918;2023-02-08T09:48:45;17.00;;;11.25;;
41221;SDS011;26952;42.884;23.918;2023-02-08T09:53:59;18.85;;;11.23;;
41221;SDS011;26952;42.884;23.918;2023-02-08T09:56:45;22.25;;;10.68;;
41221;SDS011;26952;42.884;23.918;2023-02-08T09:59:12;20.10;;;12.52;;
41221;SDS011;26952;42.884;23.918;2023-02-08T10:01:41;20.33;;;12.27;;
41221;SDS011;26952;42.884;23.918;2023-02-08T10:06:50;22.42;;;12.20;;
41221;SDS011;26952;42.884;23.918;2023-02-08T10:09:17;19.98;;;12.30;;
41221;SDS011;26952;42.884;23.918;2023-02-08T10:14:52;20.25;;;11.73;;
41221;SDS011;26952;42.884;23.918;2023-02-08T10:36:50;20.52;;;12.98;;
41221;SDS011;26952;42.884;23.918;2023-02-08T10:39:17;21.00;;;13.90;;
41221;SDS011;26952;42.884;23.918;2023-02-08T10:41:49;21.63;;;11.90;;
41221;SDS011;26952;42.884;23.918;2023-02-08T10:46:55;17.52;;;12.63;;
41221;SDS011;26952;42.884;23.918;2023-02-08T10:49:56;17.55;;;11.35;;
41221;SDS011;26952;42.884;23.918;2023-02-08T10:52:26;22.15;;;12.55;;
41221;SDS011;26952;42.884;23.918;2023-02-08T10:54:52;20.27;;;13.20;;
41221;SDS011;26952;42.884;23.918;2023-02-08T10:57:22;20.83;;;12.75;;
41221;SDS011;26952;42.884;23.918;2023-02-08T10:59:57;18.80;;;11.52;;
41221;SDS011;26952;42.884;23.918;2023-02-08T11:02:27;19.15;;;12.25;;
41221;SDS011;26952;42.884;23.918;2023-02-08T11:04:57;20.15;;;13.07;;
41221;SDS011;26952;42.884;23.918;2023-02-08T11:07:31;22.25;;;12.27;;
41221;SDS011;26952;42.884;23.918;2023-02-08T11:10:30;20.65;;;12.68;;
41221;SDS011;26952;42.884;23.918;2023-02-08T11:12:59;21.10;;;12.27;;
41221;SDS011;26952;42.884;23.918;2023-02-08T11:18:38;17.98;;;11.38;;
41221;SDS011;26952;42.884;23.918;2023-02-08T11:26:51;17.48;;;12.45;;
41221;SDS011;26952;42.884;23.918;2023-02-08T11:29:27;20.73;;;13.20;;
41221;SDS011;26952;42.884;23.918;2023-02-08T11:34:27;37.08;;;21.92;;
41221;SDS011;26952;42.884;23.918;2023-02-08T11:36:53;32.65;;;17.70;;
41221;SDS011;26952;42.884;23.918;2023-02-08T11:41:45;28.52;;;17.10;;
41221;SDS011;26952;42.884;23.918;2023-02-08T11:44:25;28.55;;;18.13;;
41221;SDS011;26952;42.884;23.918;2023-02-08T11:49:21;25.70;;;16.35;;
41221;SDS011;26952;42.884;23.918;2023-02-08T11:51:48;25.77;;;16.40;;
41221;SDS011;26952;42.884;23.918;2023-02-08T11:57:01;21.83;;;15.15;;
41221;SDS011;26952;42.884;23.918;2023-02-08T11:59:28;21.48;;;13.25;;
41221;SDS011;26952;42.884;23.918;2023-02-08T12:01:54;21.27;;;12.20;;
41221;SDS011;26952;42.884;23.918;2023-02-08T12:04:20;20.58;;;12.93;;
41221;SDS011;26952;42.884;23.918;2023-02-08T12:20:47;17.60;;;11.80;;
41221;SDS011;26952;42.884;23.918;2023-02-08T12:26:13;18.77;;;11.32;;
41221;SDS011;26952;42.884;23.918;2023-02-08T12:34:51;26.13;;;15.07;;
41221;SDS011;26952;42.884;23.918;2023-02-08T12:45:50;25.45;;;14.68;;
41221;SDS011;26952;42.884;23.918;2023-02-08T12:53:44;20.23;;;12.48;;
41221;SDS011;26952;42.884;23.918;2023-02-08T12:56:17;19.65;;;11.45;;
41221;SDS011;26952;42.884;23.918;2023-02-08T12:58:49;14.27;;;8.82;;
41221;SDS011;26952;42.884;23.918;2023-02-08T13:01:33;13.88;;;9.15;;
41221;SDS011;26952;42.884;23.918;2023-02-08T13:04:14;19.08;;;11.30;;
41221;SDS011;26952;42.884;23.918;2023-02-08T13:06:48;20.67;;;12.30;;
41221;SDS011;26952;42.884;23.918;2023-02-08T13:14:34;17.05;;;9.50;;
41221;SDS011;26952;42.884;23.918;2023-02-08T13:17:04;21.60;;;11.73;;
41221;SDS011;26952;42.884;23.918;2023-02-08T13:22:32;16.75;;;8.88;;
41221;SDS011;26952;42.884;23.918;2023-02-08T13:25:01;16.50;;;10.20;;
41221;SDS011;26952;42.884;23.918;2023-02-08T13:27:29;13.25;;;7.80;;
41221;SDS011;26952;42.884;23.918;2023-02-08T13:29:54;9.88;;;6.85;;
41221;SDS011;26952;42.884;23.918;2023-02-08T13:34:52;12.35;;;7.53;;
41221;SDS011;26952;42.884;23.918;2023-02-08T13:37:27;12.45;;;7.82;;
41221;SDS011;26952;42.884;23.918;2023-02-08T13:40:02;10.60;;;7.03;;
41221;SDS011;26952;42.884;23.918;2023-02-08T13:42:47;11.57;;;6.90;;
41221;SDS011;26952;42.884;23.918;2023-02-08T13:45:24;9.38;;;5.55;;
41221;SDS011;26952;42.884;23.918;2023-02-08T13:48:00;11.23;;;6.68;;
41221;SDS011;26952;42.884;23.918;2023-02-08T13:50:42;11.05;;;6.68;;
41221;SDS011;26952;42.884;23.918;2023-02-08T13:53:14;12.45;;;6.80;;
41221;SDS011;26952;42.884;23.918;2023-02-08T13:56:02;10.40;;;6.38;;
41221;SDS011;26952;42.884;23.918;2023-02-08T14:01:07;10.88;;;6.05;;
41221;SDS011;26952;42.884;23.918;2023-02-08T14:03:41;14.90;;;7.00;;
41221;SDS011;26952;42.884;23.918;2023-02-08T14:06:42;13.80;;;8.18;;
41221;SDS011;26952;42.884;23.918;2023-02-08T14:09:21;12.25;;;7.40;;
41221;SDS011;26952;42.884;23.918;2023-02-08T14:12:00;14.32;;;8.48;;
41221;SDS011;26952;42.884;23.918;2023-02-08T14:14:30;13.63;;;7.65;;
41221;SDS011;26952;42.884;23.918;2023-02-08T14:19:59;13.30;;;7.85;;
41221;SDS011;26952;42.884;23.918;2023-02-08T14:22:33;21.13;;;11.43;;
41221;SDS011;26952;42.884;23.918;2023-02-08T14:25:07;19.48;;;9.88;;
41221;SDS011;26952;42.884;23.918;2023-02-08T14:27:49;17.88;;;9.10;;
41221;SDS011;26952;42.884;23.918;2023-02-08T14:30:31;15.48;;;8.98;;
41221;SDS011;26952;42.884;23.918;2023-02-08T14:35:27;13.07;;;8.52;;
41221;SDS011;26952;42.884;23.918;2023-02-08T14:45:54;11.20;;;7.20;;
41221;SDS011;26952;42.884;23.918;2023-02-08T14:48:22;11.23;;;6.97;;
41221;SDS011;26952;42.884;23.918;2023-02-08T14:53:17;12.40;;;7.78;;
41221;SDS011;26952;42.884;23.918;2023-02-08T14:55:49;13.65;;;8.13;;
41221;SDS011;26952;42.884;23.918;2023-02-08T14:58:42;14.85;;;7.55;;
41221;SDS011;26952;42.884;23.918;2023-02-08T15:01:17;12.50;;;8.25;;
41221;SDS011;26952;42.884;23.918;2023-02-08T15:03:45;11.50;;;8.23;;
41221;SDS011;26952;42.884;23.918;2023-02-08T15:09:09;17.45;;;10.20;;
41221;SDS011;26952;42.884;23.918;2023-02-08T15:11:40;14.43;;;8.55;;
41221;SDS011;26952;42.884;23.918;2023-02-08T15:14:06;13.70;;;8.93;;
41221;SDS011;26952;42.884;23.918;2023-02-08T15:16:41;14.05;;;7.97;;
41221;SDS011;26952;42.884;23.918;2023-02-08T15:19:08;13.70;;;8.48;;
41221;SDS011;26952;42.884;23.918;2023-02-08T15:21:44;13.98;;;8.73;;
41221;SDS011;26952;42.884;23.918;2023-02-08T15:24:14;14.68;;;9.23;;
41221;SDS011;26952;42.884;23.918;2023-02-08T15:26:48;15.85;;;8.65;;
41221;SDS011;26952;42.884;23.918;2023-02-08T15:29:16;12.52;;;7.88;;
41221;SDS011;26952;42.884;23.918;2023-02-08T15:31:44;14.45;;;8.05;;
41221;SDS011;26952;42.884;23.918;2023-02-08T15:34:10;13.07;;;8.27;;
41221;SDS011;26952;42.884;23.918;2023-02-08T15:36:36;17.08;;;9.18;;
41221;SDS011;26952;42.884;23.918;2023-02-08T15:39:23;14.25;;;8.75;;
41221;SDS011;26952;42.884;23.918;2023-02-08T15:41:56;12.30;;;7.70;;
41221;SDS011;26952;42.884;23.918;2023-02-08T15:44:27;15.30;;;7.95;;
41221;SDS011;26952;42.884;23.918;2023-02-08T15:46:54;15.20;;;8.68;;
41221;SDS011;26952;42.884;23.918;2023-02-08T15:49:29;16.83;;;9.65;;
41221;SDS011;26952;42.884;23.918;2023-02-08T15:51:58;14.82;;;9.25;;
41221;SDS011;26952;42.884;23.918;2023-02-08T15:54:24;13.32;;;8.20;;
41221;SDS011;26952;42.884;23.918;2023-02-08T15:59:26;17.10;;;9.93;;
41221;SDS011;26952;42.884;23.918;2023-02-08T16:01:56;14.80;;;9.95;;
41221;SDS011;26952;42.884;23.918;2023-02-08T16:04:26;16.42;;;9.38;;
41221;SDS011;26952;42.884;23.918;2023-02-08T16:06:55;13.68;;;8.52;;
41221;SDS011;26952;42.884;23.918;2023-02-08T16:09:24;12.32;;;7.28;;
41221;SDS011;26952;42.884;23.918;2023-02-08T16:11:52;14.70;;;8.73;;
41221;SDS011;26952;42.884;23.918;2023-02-08T16:14:22;15.23;;;8.02;;
41221;SDS011;26952;42.884;23.918;2023-02-08T16:16:50;12.07;;;7.78;;
41221;SDS011;26952;42.884;23.918;2023-02-08T16:21:54;14.95;;;9.00;;
41221;SDS011;26952;42.884;23.918;2023-02-08T16:24:38;13.30;;;8.35;;
41221;SDS011;26952;42.884;23.918;2023-02-08T16:27:46;16.92;;;9.63;;
41221;SDS011;26952;42.884;23.918;2023-02-08T16:29:57;18.48;;;9.23;;
41221;SDS011;26952;42.884;23.918;2023-02-08T16:32:31;18.30;;;9.40;;
41221;SDS011;26952;42.884;23.918;2023-02-08T16:35:09;15.80;;;9.15;;
41221;SDS011;26952;42.884;23.918;2023-02-08T16:37:36;20.67;;;11.30;;
41221;SDS011;26952;42.884;23.918;2023-02-08T16:40:08;14.45;;;9.35;;
41221;SDS011;26952;42.884;23.918;2023-02-08T16:42:43;14.45;;;8.90;;
41221;SDS011;26952;42.884;23.918;2023-02-08T16:47:37;17.92;;;10.38;;
41221;SDS011;26952;42.884;23.918;2023-02-08T16:50:04;14.18;;;9.00;;
41221;SDS011;26952;42.884;23.918;2023-02-08T16:52:30;16.83;;;9.75;;
41221;SDS011;26952;42.884;23.918;2023-02-08T16:54:56;13.63;;;8.57;;
41221;SDS011;26952;42.884;23.918;2023-02-08T16:57:22;15.80;;;9.65;;
41221;SDS011;26952;42.884;23.918;2023-02-08T16:59:48;15.40;;;9.32;;
41221;SDS011;26952;42.884;23.918;2023-02-08T17:02:14;18.15;;;9.40;;
41221;SDS011;26952;42.884;23.918;2023-02-08T17:04:39;16.00;;;8.85;;